Youngsville, Pennsylvania
Current Conditions -  °F | °C
As of 11:15 PM on Saturday 25 Oct 2014 (Local Time) from KJHW Reporting Station
Clear Clear  
Wind Chill: 52°   Ceiling: Unl
Heat Index: 52°   Visibility: 10mi
Dew Point: 39°   Wind: 16mph
Humidity: 62%   Direction: 300°WNW
Pressure: 29.7"   Gusts: 29mph
Location:  41.85°N, 79.32°W
Report Text: KJHW 260315Z AUTO 30014G25KT 10SM CLR 11/04 A2970 RMK AO1
Loading
Personal Weather Stations






























Interactive Weather Map
Tropical Storm Tracking
New forecast layout! Learn more

10-Day Weather Forecast

Advertisements
Track Severe Weather on mobile